createdAt,value
2019-01-31T00:01:39.632Z,2.59
2019-01-31T00:04:38.914Z,2.63
2019-01-31T00:07:43.360Z,2.74
2019-01-31T00:11:09.528Z,2.84
2019-01-31T00:14:17.945Z,2.87
2019-01-31T00:17:36.499Z,2.89
2019-01-31T00:20:41.123Z,2.50
2019-01-31T00:23:41.916Z,2.51
2019-01-31T00:26:41.802Z,2.61
2019-01-31T00:29:43.241Z,2.74
2019-01-31T00:32:21.118Z,2.85
2019-01-31T00:35:52.907Z,3.11
2019-01-31T00:38:59.286Z,3.36
2019-01-31T00:41:56.328Z,3.46
2019-01-31T00:45:16.019Z,3.02
2019-01-31T00:48:34.567Z,2.87
2019-01-31T00:51:28.238Z,3.31
2019-01-31T00:54:26.753Z,3.37
2019-01-31T00:57:28.169Z,3.64
2019-01-31T01:00:41.722Z,2.85
2019-01-31T01:04:04.571Z,3.11
2019-01-31T01:07:20.876Z,3.47
2019-01-31T01:10:27.505Z,3.55
2019-01-31T01:13:20.813Z,3.71
2019-01-31T01:16:24.627Z,3.66
2019-01-31T01:19:26.030Z,3.57
2019-01-31T01:22:54.563Z,3.41
2019-01-31T01:25:40.156Z,3.38
2019-01-31T01:28:47.834Z,3.42
2019-01-31T01:31:39.470Z,3.26
2019-01-31T01:34:32.136Z,3.29
2019-01-31T01:37:44.735Z,3.41
2019-01-31T01:41:03.291Z,3.48
2019-01-31T01:44:22.564Z,3.55
2019-01-31T01:47:15.834Z,3.62
2019-01-31T01:49:52.253Z,3.38
2019-01-31T01:52:36.165Z,2.91
2019-01-31T01:55:25.171Z,2.93
2019-01-31T01:58:32.559Z,3.21
2019-01-31T02:01:55.142Z,2.92
2019-01-31T02:04:59.667Z,2.93
2019-01-31T02:08:05.974Z,3.14
2019-01-31T02:11:07.003Z,3.23
2019-01-31T02:14:18.137Z,3.21
2019-01-31T02:17:12.156Z,2.27
2019-01-31T02:20:13.891Z,1.69
2019-01-31T02:23:03.835Z,1.92
2019-01-31T02:26:05.546Z,2.68
2019-01-31T02:29:18.251Z,3.17
2019-01-31T02:32:43.176Z,3.40
2019-01-31T02:35:40.528Z,3.29
2019-01-31T02:38:48.696Z,3.33
2019-01-31T02:41:45.782Z,3.28
2019-01-31T02:45:02.605Z,3.21
2019-01-31T02:48:21.684Z,2.55
2019-01-31T02:51:30.400Z,2.54
2019-01-31T02:54:12.435Z,2.63
2019-01-31T02:57:34.844Z,2.56
2019-01-31T03:00:17.455Z,2.32
2019-01-31T03:03:19.422Z,2.36
2019-01-31T03:06:26.106Z,2.20
2019-01-31T03:09:18.338Z,2.30
2019-01-31T03:12:04.523Z,2.22
2019-01-31T03:14:57.594Z,2.37
2019-01-31T03:18:06.934Z,2.32
2019-01-31T03:20:55.994Z,2.22
2019-01-31T03:24:02.568Z,2.29
2019-01-31T03:27:03.321Z,2.24
2019-01-31T03:30:02.114Z,2.39
2019-01-31T03:32:38.637Z,2.54
2019-01-31T03:35:43.176Z,2.63
2019-01-31T03:38:26.966Z,2.62
2019-01-31T03:41:36.765Z,2.47
2019-01-31T03:44:52.886Z,2.02
2019-01-31T03:48:15.432Z,1.72
2019-01-31T03:51:14.750Z,2.26
2019-01-31T03:54:23.769Z,2.53
2019-01-31T03:57:37.818Z,2.00
2019-01-31T04:00:43.080Z,1.33
2019-01-31T04:03:52.706Z,1.16
2019-01-31T04:06:28.320Z,1.33
2019-01-31T04:08:57.897Z,1.77
2019-01-31T04:11:27.573Z,2.21
2019-01-31T04:13:57.218Z,2.14
2019-01-31T04:16:26.761Z,2.44
2019-01-31T04:18:56.317Z,2.58
2019-01-31T04:21:25.946Z,1.92
2019-01-31T04:23:55.549Z,1.45
2019-01-31T04:26:25.185Z,1.49
2019-01-31T04:28:54.735Z,1.25
2019-01-31T04:31:24.357Z,1.25
2019-01-31T04:33:54.016Z,1.30
2019-01-31T04:36:23.656Z,1.11
2019-01-31T04:38:53.326Z,0.95
2019-01-31T04:41:22.897Z,1.07
2019-01-31T04:43:52.545Z,1.06
2019-01-31T04:46:22.135Z,1.00
2019-01-31T04:48:51.683Z,1.09
2019-01-31T04:51:21.342Z,1.28
2019-01-31T04:53:50.984Z,1.49
2019-01-31T04:56:20.546Z,1.38
2019-01-31T04:58:51.655Z,1.65
2019-01-31T05:01:21.284Z,1.79
2019-01-31T05:03:50.942Z,1.88
2019-01-31T05:06:20.608Z,1.58
2019-01-31T05:08:50.270Z,1.60
2019-01-31T05:11:19.897Z,1.55
2019-01-31T05:13:49.582Z,1.29
2019-01-31T05:16:19.156Z,1.29
2019-01-31T05:18:48.784Z,1.22
2019-01-31T05:21:20.968Z,1.10
2019-01-31T05:23:49.780Z,1.20
2019-01-31T05:26:19.598Z,1.16
2019-01-31T05:28:49.281Z,1.26
2019-01-31T05:31:18.808Z,1.15
2019-01-31T05:33:48.503Z,1.34
2019-01-31T05:36:18.160Z,1.24
2019-01-31T05:38:48.018Z,1.20
2019-01-31T05:41:17.676Z,1.30
2019-01-31T05:43:47.340Z,1.33
2019-01-31T05:46:18.405Z,1.45
2019-01-31T05:48:48.110Z,1.40
2019-01-31T05:51:17.757Z,1.29
2019-01-31T05:53:47.433Z,1.16
2019-01-31T05:56:17.137Z,1.30
2019-01-31T05:58:46.829Z,1.44
2019-01-31T06:01:16.474Z,1.48
2019-01-31T06:03:46.231Z,1.40
2019-01-31T06:06:15.809Z,1.45
2019-01-31T06:08:45.469Z,1.75
2019-01-31T06:11:15.108Z,1.81
2019-01-31T06:13:44.790Z,2.02
2019-01-31T06:16:14.443Z,2.41
2019-01-31T06:18:44.117Z,2.39
2019-01-31T06:21:13.753Z,2.76
2019-01-31T06:23:43.420Z,2.89
2019-01-31T06:26:12.941Z,3.07
2019-01-31T06:28:42.651Z,3.44
2019-01-31T06:31:12.290Z,3.82
2019-01-31T06:33:41.917Z,3.93
2019-01-31T06:36:11.591Z,3.99
2019-01-31T06:38:41.277Z,4.03
2019-01-31T06:41:18.213Z,4.06
2019-01-31T06:43:42.235Z,4.11
2019-01-31T06:46:11.984Z,3.75
2019-01-31T06:48:41.557Z,3.29
2019-01-31T06:51:11.250Z,2.95
2019-01-31T06:53:40.919Z,2.87
2019-01-31T06:56:10.553Z,3.03
2019-01-31T06:58:41.113Z,3.07
2019-01-31T07:01:10.882Z,2.43
2019-01-31T07:03:40.499Z,1.86
2019-01-31T07:06:10.111Z,1.34
2019-01-31T07:08:39.701Z,1.16
2019-01-31T07:11:09.337Z,1.22
2019-01-31T07:13:39.002Z,1.33
2019-01-31T07:16:08.674Z,1.40
2019-01-31T07:18:38.582Z,1.07
2019-01-31T07:21:08.273Z,1.01
2019-01-31T07:23:37.832Z,0.98
2019-01-31T07:26:07.609Z,1.15
2019-01-31T07:28:37.249Z,1.44
2019-01-31T07:31:07.049Z,1.23
2019-01-31T07:33:36.682Z,1.02
2019-01-31T07:36:06.094Z,1.05
2019-01-31T07:38:35.552Z,0.91
2019-01-31T07:41:05.063Z,1.05
2019-01-31T07:43:34.571Z,0.95
2019-01-31T07:46:04.260Z,0.78
2019-01-31T07:48:33.883Z,0.61
2019-01-31T07:51:03.440Z,0.56
2019-01-31T07:53:33.032Z,0.74
2019-01-31T07:56:02.786Z,0.69
2019-01-31T07:58:32.336Z,0.69
2019-01-31T08:01:01.849Z,0.93
2019-01-31T08:03:31.235Z,0.92
2019-01-31T08:06:00.650Z,0.56
2019-01-31T08:08:30.040Z,0.50
2019-01-31T08:11:03.643Z,0.73
2019-01-31T08:13:32.990Z,0.73
2019-01-31T08:16:02.422Z,0.69
2019-01-31T08:18:31.813Z,0.86
2019-01-31T08:21:01.240Z,0.79
2019-01-31T08:23:30.599Z,0.78
2019-01-31T08:25:59.978Z,0.96
2019-01-31T08:28:29.300Z,0.99
2019-01-31T08:30:58.748Z,1.37
2019-01-31T08:33:28.486Z,1.38
2019-01-31T08:35:58.017Z,1.53
2019-01-31T08:38:27.419Z,1.52
2019-01-31T08:40:56.936Z,1.67
2019-01-31T08:43:26.274Z,1.84
2019-01-31T08:45:55.677Z,1.40
2019-01-31T08:48:25.100Z,1.19
2019-01-31T08:50:54.499Z,1.33
2019-01-31T08:53:23.870Z,1.43
2019-01-31T08:55:53.303Z,1.18
2019-01-31T08:58:22.672Z,1.30
2019-01-31T09:00:52.022Z,1.55
2019-01-31T09:03:21.465Z,1.61
2019-01-31T09:05:50.877Z,1.48
2019-01-31T09:08:20.315Z,1.43
2019-01-31T09:10:49.790Z,1.25
2019-01-31T09:13:19.175Z,1.52
2019-01-31T09:15:48.529Z,1.68
2019-01-31T09:18:17.951Z,1.97
2019-01-31T09:21:14.398Z,2.00
2019-01-31T09:24:06.434Z,2.15
2019-01-31T09:27:14.022Z,1.81
2019-01-31T09:30:26.079Z,2.33
2019-01-31T09:33:18.589Z,2.52
2019-01-31T09:36:29.314Z,2.74
2019-01-31T09:39:32.610Z,2.94
2019-01-31T09:42:26.342Z,2.72
2019-01-31T09:45:25.997Z,2.30
2019-01-31T09:48:09.015Z,2.36
2019-01-31T09:51:29.315Z,2.31
2019-01-31T09:54:16.714Z,2.19
2019-01-31T09:57:13.286Z,2.21
2019-01-31T10:00:27.123Z,2.22
2019-01-31T10:03:36.773Z,2.28
2019-01-31T10:06:42.119Z,2.31
2019-01-31T10:09:33.002Z,2.24
2019-01-31T10:12:38.328Z,1.89
2019-01-31T10:15:30.971Z,2.07
2019-01-31T10:18:53.715Z,2.02
2019-01-31T10:21:55.484Z,2.01
2019-01-31T10:25:06.619Z,1.90
2019-01-31T10:28:20.663Z,1.95
2019-01-31T10:31:32.794Z,1.70
2019-01-31T10:34:23.208Z,1.79
2019-01-31T10:37:05.624Z,1.88
2019-01-31T10:39:57.091Z,1.88
2019-01-31T10:42:53.634Z,1.88
2019-01-31T10:45:53.872Z,1.94
2019-01-31T10:48:47.934Z,1.95
2019-01-31T10:51:44.725Z,2.05
2019-01-31T10:54:44.700Z,1.99
2019-01-31T10:58:09.504Z,2.00
2019-01-31T11:01:09.229Z,1.99
2019-01-31T11:04:10.872Z,1.96
2019-01-31T11:07:29.539Z,2.02
2019-01-31T11:10:36.198Z,1.97
2019-01-31T11:13:46.572Z,1.90
2019-01-31T11:16:39.116Z,2.06
2019-01-31T11:19:58.899Z,1.98
2019-01-31T11:23:14.998Z,1.94
2019-01-31T11:26:31.177Z,1.93
2019-01-31T11:29:40.541Z,1.93
2019-01-31T11:32:45.986Z,1.91
2019-01-31T11:36:05.564Z,1.87
2019-01-31T11:39:02.121Z,1.77
2019-01-31T11:42:21.478Z,1.87
2019-01-31T11:45:43.927Z,1.90
2019-01-31T11:48:31.875Z,1.95
2019-01-31T11:51:45.099Z,2.01
2019-01-31T11:54:44.603Z,1.94
2019-01-31T11:57:50.766Z,2.32
2019-01-31T12:00:23.392Z,2.28
2019-01-31T12:02:55.167Z,2.41
2019-01-31T12:05:24.377Z,2.38
2019-01-31T12:07:54.043Z,2.32
2019-01-31T12:10:23.972Z,2.57
2019-01-31T12:12:53.649Z,2.39
2019-01-31T12:15:23.312Z,2.56
2019-01-31T12:17:52.911Z,2.55
2019-01-31T12:20:22.498Z,2.41
2019-01-31T12:22:52.007Z,2.54
2019-01-31T12:25:21.742Z,2.48
2019-01-31T12:27:51.286Z,2.76
2019-01-31T12:30:23.945Z,3.36
2019-01-31T12:32:53.601Z,3.68
2019-01-31T12:35:23.279Z,3.92
2019-01-31T12:37:52.890Z,4.09
2019-01-31T12:40:22.571Z,4.37
2019-01-31T12:42:52.130Z,4.58
2019-01-31T12:45:22.124Z,4.68
2019-01-31T12:47:52.309Z,4.76
2019-01-31T12:50:24.921Z,4.69
2019-01-31T12:52:54.575Z,4.72
2019-01-31T12:55:24.243Z,4.87
2019-01-31T12:57:53.876Z,4.90
2019-01-31T13:00:28.255Z,4.92
2019-01-31T13:02:57.890Z,4.94
2019-01-31T13:05:27.505Z,4.77
2019-01-31T13:07:57.324Z,4.48
2019-01-31T13:10:26.986Z,4.11
2019-01-31T13:12:57.202Z,3.89
2019-01-31T13:15:29.387Z,4.13
2019-01-31T13:17:58.293Z,4.45
2019-01-31T13:20:27.926Z,4.45
2019-01-31T13:22:58.304Z,4.18
2019-01-31T13:25:28.473Z,3.96
2019-01-31T13:27:57.887Z,4.29
2019-01-31T13:30:27.662Z,4.45
2019-01-31T13:32:57.877Z,4.83
2019-01-31T13:35:27.210Z,5.16
2019-01-31T13:37:56.598Z,5.34
2019-01-31T13:40:28.332Z,5.45
2019-01-31T13:42:58.127Z,5.01
2019-01-31T13:45:29.820Z,4.53
2019-01-31T13:48:01.116Z,4.54
2019-01-31T13:50:30.473Z,4.82
2019-01-31T13:52:59.906Z,4.37
2019-01-31T13:55:30.611Z,3.66
2019-01-31T13:58:00.935Z,3.40
2019-01-31T14:00:30.356Z,3.43
2019-01-31T14:02:59.765Z,4.02
2019-01-31T14:05:30.035Z,4.62
2019-01-31T14:08:00.246Z,4.78
2019-01-31T14:10:29.595Z,4.74
2019-01-31T14:12:58.998Z,4.59
2019-01-31T14:15:34.239Z,4.91
2019-01-31T14:18:01.969Z,4.14
2019-01-31T14:20:31.341Z,4.30
2019-01-31T14:23:00.769Z,4.46
2019-01-31T14:25:30.120Z,4.65
2019-01-31T14:27:59.542Z,4.56
2019-01-31T14:30:33.523Z,4.02
2019-01-31T14:33:03.240Z,3.69
2019-01-31T14:35:32.928Z,3.32
2019-01-31T14:38:02.850Z,3.39
2019-01-31T14:40:32.801Z,3.92
2019-01-31T14:43:02.901Z,4.07
2019-01-31T14:45:32.322Z,4.50
2019-01-31T14:48:01.678Z,4.21
2019-01-31T14:50:32.533Z,3.84
2019-01-31T14:53:02.199Z,4.11
2019-01-31T14:55:31.786Z,4.20
2019-01-31T14:58:01.151Z,4.59
2019-01-31T15:00:31.913Z,4.52
2019-01-31T15:03:01.356Z,4.51
2019-01-31T15:05:30.854Z,4.32
2019-01-31T15:08:00.216Z,4.62
2019-01-31T15:10:29.889Z,4.77
2019-01-31T15:12:59.233Z,4.58
2019-01-31T15:15:28.643Z,4.90
2019-01-31T15:17:58.042Z,4.72
2019-01-31T15:20:37.507Z,4.53
2019-01-31T15:23:04.093Z,4.66
2019-01-31T15:25:33.595Z,4.43
2019-01-31T15:28:03.008Z,4.29
2019-01-31T15:30:33.878Z,4.20
2019-01-31T15:33:04.493Z,4.27
2019-01-31T15:35:33.881Z,3.99
2019-01-31T15:38:03.299Z,4.14
2019-01-31T15:40:37.833Z,3.99
2019-01-31T15:43:07.313Z,3.73
2019-01-31T15:45:36.996Z,3.92
2019-01-31T15:48:06.841Z,3.81
2019-01-31T15:50:36.329Z,3.92
2019-01-31T15:53:05.721Z,4.19
2019-01-31T15:55:35.287Z,3.91
2019-01-31T15:58:05.106Z,3.80
2019-01-31T16:00:42.247Z,4.29
2019-01-31T16:03:13.592Z,4.34
2019-01-31T16:05:43.141Z,4.21
2019-01-31T16:08:12.563Z,4.28
2019-01-31T16:10:42.049Z,3.81
2019-01-31T16:13:11.717Z,4.07
2019-01-31T16:15:41.646Z,4.05
2019-01-31T16:18:12.187Z,3.90
2019-01-31T16:20:41.940Z,3.57
2019-01-31T16:23:12.021Z,3.67
2019-01-31T16:25:41.568Z,3.81
2019-01-31T16:28:11.209Z,3.78
2019-01-31T16:30:40.881Z,3.39
2019-01-31T16:33:10.523Z,3.41
2019-01-31T16:35:41.121Z,3.70
2019-01-31T16:38:10.943Z,3.74
2019-01-31T16:40:40.566Z,4.02
2019-01-31T16:43:10.192Z,4.24
2019-01-31T16:45:39.830Z,4.38
2019-01-31T16:48:09.519Z,4.48
2019-01-31T16:50:39.209Z,4.46
2019-01-31T16:53:09.874Z,4.53
2019-01-31T16:55:39.521Z,4.63
2019-01-31T16:58:09.301Z,4.65
2019-01-31T17:00:38.895Z,4.60
2019-01-31T17:03:08.653Z,4.54
2019-01-31T17:05:38.297Z,4.50
2019-01-31T17:08:08.277Z,4.47
2019-01-31T17:10:37.925Z,4.47
2019-01-31T17:13:07.670Z,4.37
2019-01-31T17:15:37.243Z,4.34
2019-01-31T17:18:07.769Z,4.35
2019-01-31T17:20:42.482Z,4.21
2019-01-31T17:23:12.243Z,3.92
2019-01-31T17:25:41.910Z,3.48
2019-01-31T17:28:11.568Z,3.32
2019-01-31T17:30:41.278Z,3.41
2019-01-31T17:33:10.886Z,3.55
2019-01-31T17:35:40.558Z,3.51
2019-01-31T17:38:10.329Z,3.10
2019-01-31T17:40:41.274Z,2.50
2019-01-31T17:43:12.113Z,2.28
2019-01-31T17:45:41.711Z,2.28
2019-01-31T17:48:14.321Z,2.20
2019-01-31T17:50:43.939Z,2.19
2019-01-31T17:53:13.555Z,2.29
2019-01-31T17:55:43.167Z,2.11
2019-01-31T17:58:12.772Z,1.98
2019-01-31T18:00:48.818Z,1.66
2019-01-31T18:03:18.481Z,1.58
2019-01-31T18:05:48.120Z,1.66
2019-01-31T18:08:17.829Z,1.93
2019-01-31T18:10:47.487Z,1.91
2019-01-31T18:13:17.050Z,1.92
2019-01-31T18:15:46.810Z,2.18
2019-01-31T18:18:16.348Z,2.26
2019-01-31T18:20:46.037Z,2.19
2019-01-31T18:23:15.690Z,2.25
2019-01-31T18:25:45.342Z,2.50
2019-01-31T18:28:15.006Z,2.35
2019-01-31T18:30:44.649Z,2.55
2019-01-31T18:33:14.209Z,2.61
2019-01-31T18:35:45.309Z,2.61
2019-01-31T18:38:20.004Z,2.66
2019-01-31T18:40:49.652Z,2.70
2019-01-31T18:43:19.661Z,2.53
2019-01-31T18:45:53.307Z,2.34
2019-01-31T18:48:20.642Z,2.34
2019-01-31T18:50:50.234Z,1.98
2019-01-31T18:53:20.009Z,1.89
2019-01-31T18:55:49.657Z,1.61
2019-01-31T18:58:19.314Z,1.74
2019-01-31T19:00:50.191Z,1.76
2019-01-31T19:03:19.829Z,1.57
2019-01-31T19:05:49.613Z,1.32
2019-01-31T19:08:19.179Z,1.10
2019-01-31T19:10:48.790Z,0.93
2019-01-31T19:13:18.387Z,1.06
2019-01-31T19:15:48.042Z,1.07
2019-01-31T19:18:17.698Z,1.24
2019-01-31T19:20:47.353Z,1.22
2019-01-31T19:23:16.947Z,1.31
2019-01-31T19:25:47.312Z,1.17
2019-01-31T19:28:16.986Z,1.19
2019-01-31T19:30:46.587Z,1.22
2019-01-31T19:33:16.182Z,1.34
2019-01-31T19:35:45.831Z,1.52
2019-01-31T19:38:15.485Z,1.63
2019-01-31T19:40:46.379Z,1.41
2019-01-31T19:43:15.930Z,1.15
2019-01-31T19:45:47.726Z,1.03
2019-01-31T19:48:17.309Z,1.24
2019-01-31T19:50:46.959Z,0.77
2019-01-31T19:53:16.493Z,1.26
2019-01-31T19:55:46.184Z,1.67
2019-01-31T19:58:15.828Z,2.13
2019-01-31T20:00:45.457Z,2.46
2019-01-31T20:03:15.045Z,2.66
2019-01-31T20:05:44.705Z,2.25
2019-01-31T20:08:14.354Z,1.53
2019-01-31T20:10:44.008Z,0.86
2019-01-31T20:13:13.586Z,0.86
2019-01-31T20:15:43.529Z,0.70
2019-01-31T20:18:13.307Z,0.69
2019-01-31T20:20:43.027Z,0.63
2019-01-31T20:23:12.928Z,0.72
2019-01-31T20:25:42.548Z,0.66
2019-01-31T20:28:12.165Z,0.61
2019-01-31T20:30:41.730Z,0.71
2019-01-31T20:33:11.438Z,0.90
2019-01-31T20:35:41.065Z,1.03
2019-01-31T20:38:10.755Z,1.12
2019-01-31T20:40:42.010Z,1.09
2019-01-31T20:43:11.658Z,0.89
2019-01-31T20:45:41.246Z,1.04
2019-01-31T20:48:11.100Z,0.95
2019-01-31T20:50:42.226Z,0.83
2019-01-31T20:53:11.885Z,0.75
2019-01-31T20:55:41.538Z,0.67
2019-01-31T20:58:11.141Z,0.77
2019-01-31T21:00:47.796Z,0.74
2019-01-31T21:03:17.414Z,0.71
2019-01-31T21:05:47.022Z,0.84
2019-01-31T21:08:16.785Z,0.87
2019-01-31T21:10:46.419Z,0.84
2019-01-31T21:13:16.593Z,0.85
2019-01-31T21:15:46.238Z,0.86
2019-01-31T21:18:15.908Z,0.97
2019-01-31T21:20:45.690Z,1.00
2019-01-31T21:23:15.474Z,1.11
2019-01-31T21:25:45.227Z,1.08
2019-01-31T21:28:14.829Z,1.21
2019-01-31T21:30:44.405Z,1.21
2019-01-31T21:33:14.071Z,1.28
2019-01-31T21:35:43.639Z,1.26
2019-01-31T21:38:13.369Z,1.16
2019-01-31T21:40:42.976Z,1.22
2019-01-31T21:43:12.578Z,1.37
2019-01-31T21:45:42.197Z,1.54
2019-01-31T21:48:12.115Z,1.56
2019-01-31T21:50:41.588Z,1.65
2019-01-31T21:53:11.499Z,1.67
2019-01-31T21:55:41.123Z,1.90
2019-01-31T21:58:10.751Z,1.98
2019-01-31T22:00:40.208Z,1.87
2019-01-31T22:03:10.014Z,1.97
2019-01-31T22:05:39.650Z,1.79
2019-01-31T22:08:09.309Z,1.54
2019-01-31T22:10:38.971Z,1.43
2019-01-31T22:13:08.369Z,1.36
2019-01-31T22:15:37.780Z,1.33
2019-01-31T22:18:07.851Z,1.42
2019-01-31T22:20:37.470Z,1.31
2019-01-31T22:23:07.168Z,1.34
2019-01-31T22:25:36.822Z,1.25
2019-01-31T22:28:07.489Z,1.20
2019-01-31T22:30:38.398Z,1.14
2019-01-31T22:33:09.410Z,1.09
2019-01-31T22:35:39.062Z,1.12
2019-01-31T22:38:08.704Z,1.25
2019-01-31T22:40:38.429Z,1.17
2019-01-31T22:43:08.112Z,1.14
2019-01-31T22:45:37.685Z,1.22
2019-01-31T22:48:07.688Z,1.21
2019-01-31T22:50:37.080Z,1.28
2019-01-31T22:53:06.507Z,1.28
2019-01-31T22:55:35.978Z,1.37
2019-01-31T22:58:05.991Z,1.31
2019-01-31T23:01:17.789Z,1.27
2019-01-31T23:03:47.469Z,1.43
2019-01-31T23:06:17.969Z,1.39
2019-01-31T23:08:47.552Z,1.49
2019-01-31T23:11:17.248Z,1.40
2019-01-31T23:13:46.903Z,1.54
2019-01-31T23:16:16.535Z,1.49
2019-01-31T23:18:46.092Z,1.43
2019-01-31T23:21:15.480Z,1.48
2019-01-31T23:23:45.112Z,1.45
2019-01-31T23:26:14.750Z,1.62
2019-01-31T23:28:44.332Z,1.55
2019-01-31T23:31:13.986Z,1.69
2019-01-31T23:33:43.534Z,1.67
2019-01-31T23:36:13.195Z,1.54
2019-01-31T23:38:42.722Z,1.57
2019-01-31T23:41:12.387Z,1.41
2019-01-31T23:43:41.982Z,1.39
2019-01-31T23:46:11.619Z,1.43
2019-01-31T23:48:41.260Z,1.37
2019-01-31T23:51:11.047Z,1.45
2019-01-31T23:53:40.709Z,1.36
2019-01-31T23:56:10.370Z,1.32
2019-01-31T23:58:40.340Z,1.39
